sensor_id;sensor_type;location;lat;lon;timestamp;P1;durP1;ratioP1;P2;durP2;ratioP2
51792;SDS011;37850;53.178;6.376;2023-05-07T00:02:01;24.02;;;18.15;;
51792;SDS011;37850;53.178;6.376;2023-05-07T00:04:28;30.20;;;18.50;;
51792;SDS011;37850;53.178;6.376;2023-05-07T00:07:01;31.52;;;18.98;;
51792;SDS011;37850;53.178;6.376;2023-05-07T00:09:26;25.15;;;18.45;;
51792;SDS011;37850;53.178;6.376;2023-05-07T00:11:52;24.95;;;18.65;;
51792;SDS011;37850;53.178;6.376;2023-05-07T00:14:18;30.52;;;19.77;;
51792;SDS011;37850;53.178;6.376;2023-05-07T00:16:43;26.55;;;19.10;;
51792;SDS011;37850;53.178;6.376;2023-05-07T00:19:09;28.77;;;19.15;;
51792;SDS011;37850;53.178;6.376;2023-05-07T00:21:35;25.27;;;18.73;;
51792;SDS011;37850;53.178;6.376;2023-05-07T00:24:01;29.52;;;20.42;;
51792;SDS011;37850;53.178;6.376;2023-05-07T00:26:26;27.63;;;19.80;;
51792;SDS011;37850;53.178;6.376;2023-05-07T00:28:52;30.60;;;19.63;;
51792;SDS011;37850;53.178;6.376;2023-05-07T00:31:18;27.50;;;19.75;;
51792;SDS011;37850;53.178;6.376;2023-05-07T00:33:43;28.92;;;20.00;;
51792;SDS011;37850;53.178;6.376;2023-05-07T00:36:12;28.48;;;20.02;;
51792;SDS011;37850;53.178;6.376;2023-05-07T00:38:38;29.73;;;19.92;;
51792;SDS011;37850;53.178;6.376;2023-05-07T00:41:03;29.35;;;21.38;;
51792;SDS011;37850;53.178;6.376;2023-05-07T00:43:30;26.40;;;19.15;;
51792;SDS011;37850;53.178;6.376;2023-05-07T00:45:56;27.60;;;20.02;;
51792;SDS011;37850;53.178;6.376;2023-05-07T00:48:22;26.85;;;21.13;;
51792;SDS011;37850;53.178;6.376;2023-05-07T00:50:49;28.27;;;21.02;;
51792;SDS011;37850;53.178;6.376;2023-05-07T00:53:15;28.30;;;20.50;;
51792;SDS011;37850;53.178;6.376;2023-05-07T00:55:41;34.78;;;20.02;;
51792;SDS011;37850;53.178;6.376;2023-05-07T00:58:07;33.25;;;21.65;;
51792;SDS011;37850;53.178;6.376;2023-05-07T01:00:33;28.05;;;20.58;;
51792;SDS011;37850;53.178;6.376;2023-05-07T01:02:59;29.52;;;21.35;;
51792;SDS011;37850;53.178;6.376;2023-05-07T01:05:25;30.85;;;21.33;;
51792;SDS011;37850;53.178;6.376;2023-05-07T01:07:52;28.98;;;21.05;;
51792;SDS011;37850;53.178;6.376;2023-05-07T01:10:20;32.50;;;19.98;;
51792;SDS011;37850;53.178;6.376;2023-05-07T01:12:47;29.73;;;20.10;;
51792;SDS011;37850;53.178;6.376;2023-05-07T01:15:15;34.17;;;21.48;;
51792;SDS011;37850;53.178;6.376;2023-05-07T01:17:43;30.85;;;20.63;;
51792;SDS011;37850;53.178;6.376;2023-05-07T01:20:12;32.55;;;21.52;;
51792;SDS011;37850;53.178;6.376;2023-05-07T01:22:39;29.00;;;19.63;;
51792;SDS011;37850;53.178;6.376;2023-05-07T01:25:06;27.90;;;20.42;;
51792;SDS011;37850;53.178;6.376;2023-05-07T01:27:33;30.70;;;21.60;;
51792;SDS011;37850;53.178;6.376;2023-05-07T01:30:00;29.38;;;20.85;;
51792;SDS011;37850;53.178;6.376;2023-05-07T01:32:37;30.30;;;20.88;;
51792;SDS011;37850;53.178;6.376;2023-05-07T01:35:16;30.83;;;20.88;;
51792;SDS011;37850;53.178;6.376;2023-05-07T01:37:46;29.25;;;20.95;;
51792;SDS011;37850;53.178;6.376;2023-05-07T01:40:12;27.55;;;19.92;;
51792;SDS011;37850;53.178;6.376;2023-05-07T01:42:39;29.30;;;21.77;;
51792;SDS011;37850;53.178;6.376;2023-05-07T01:45:06;25.88;;;19.13;;
51792;SDS011;37850;53.178;6.376;2023-05-07T01:47:32;30.25;;;19.77;;
51792;SDS011;37850;53.178;6.376;2023-05-07T01:49:59;28.77;;;20.75;;
51792;SDS011;37850;53.178;6.376;2023-05-07T01:52:25;30.30;;;21.77;;
51792;SDS011;37850;53.178;6.376;2023-05-07T01:54:53;33.03;;;21.00;;
51792;SDS011;37850;53.178;6.376;2023-05-07T01:57:18;28.90;;;21.35;;
51792;SDS011;37850;53.178;6.376;2023-05-07T01:59:44;29.77;;;22.17;;
51792;SDS011;37850;53.178;6.376;2023-05-07T02:02:10;33.15;;;21.42;;
51792;SDS011;37850;53.178;6.376;2023-05-07T02:04:36;34.08;;;23.05;;
51792;SDS011;37850;53.178;6.376;2023-05-07T02:07:02;31.67;;;23.13;;
51792;SDS011;37850;53.178;6.376;2023-05-07T02:09:27;30.98;;;23.02;;
51792;SDS011;37850;53.178;6.376;2023-05-07T02:11:53;29.85;;;22.35;;
51792;SDS011;37850;53.178;6.376;2023-05-07T02:14:19;31.58;;;23.05;;
51792;SDS011;37850;53.178;6.376;2023-05-07T02:16:45;33.10;;;23.33;;
51792;SDS011;37850;53.178;6.376;2023-05-07T02:19:11;34.80;;;24.92;;
51792;SDS011;37850;53.178;6.376;2023-05-07T02:21:37;35.40;;;24.50;;
51792;SDS011;37850;53.178;6.376;2023-05-07T02:24:02;36.15;;;23.92;;
51792;SDS011;37850;53.178;6.376;2023-05-07T02:26:28;33.25;;;24.70;;
51792;SDS011;37850;53.178;6.376;2023-05-07T02:28:54;34.92;;;25.48;;
51792;SDS011;37850;53.178;6.376;2023-05-07T02:31:20;32.33;;;24.35;;
51792;SDS011;37850;53.178;6.376;2023-05-07T02:33:45;34.10;;;24.15;;
51792;SDS011;37850;53.178;6.376;2023-05-07T02:36:11;37.72;;;25.35;;
51792;SDS011;37850;53.178;6.376;2023-05-07T02:38:37;36.00;;;25.75;;
51792;SDS011;37850;53.178;6.376;2023-05-07T02:41:03;34.25;;;26.15;;
51792;SDS011;37850;53.178;6.376;2023-05-07T02:43:29;34.67;;;25.67;;
51792;SDS011;37850;53.178;6.376;2023-05-07T02:46:04;34.95;;;26.35;;
51792;SDS011;37850;53.178;6.376;2023-05-07T02:48:32;38.00;;;26.60;;
51792;SDS011;37850;53.178;6.376;2023-05-07T02:50:58;41.97;;;26.80;;
51792;SDS011;37850;53.178;6.376;2023-05-07T02:53:24;37.35;;;25.73;;
51792;SDS011;37850;53.178;6.376;2023-05-07T02:55:54;37.70;;;26.90;;
51792;SDS011;37850;53.178;6.376;2023-05-07T02:58:21;35.63;;;25.85;;
51792;SDS011;37850;53.178;6.376;2023-05-07T03:00:47;37.45;;;26.67;;
51792;SDS011;37850;53.178;6.376;2023-05-07T03:03:13;40.35;;;27.27;;
51792;SDS011;37850;53.178;6.376;2023-05-07T03:05:39;43.33;;;27.77;;
51792;SDS011;37850;53.178;6.376;2023-05-07T03:08:05;40.72;;;26.33;;
51792;SDS011;37850;53.178;6.376;2023-05-07T03:10:32;38.50;;;26.90;;
51792;SDS011;37850;53.178;6.376;2023-05-07T03:12:58;40.75;;;27.50;;
51792;SDS011;37850;53.178;6.376;2023-05-07T03:15:23;39.50;;;27.45;;
51792;SDS011;37850;53.178;6.376;2023-05-07T03:17:49;44.63;;;29.02;;
51792;SDS011;37850;53.178;6.376;2023-05-07T03:20:15;40.30;;;27.80;;
51792;SDS011;37850;53.178;6.376;2023-05-07T03:22:41;45.17;;;28.45;;
51792;SDS011;37850;53.178;6.376;2023-05-07T03:25:07;43.45;;;28.20;;
51792;SDS011;37850;53.178;6.376;2023-05-07T03:27:33;39.58;;;28.98;;
51792;SDS011;37850;53.178;6.376;2023-05-07T03:29:59;49.20;;;29.92;;
51792;SDS011;37850;53.178;6.376;2023-05-07T03:32:25;43.75;;;28.70;;
51792;SDS011;37850;53.178;6.376;2023-05-07T03:34:51;48.10;;;28.58;;
51792;SDS011;37850;53.178;6.376;2023-05-07T03:37:17;44.63;;;28.35;;
51792;SDS011;37850;53.178;6.376;2023-05-07T03:39:43;42.22;;;27.83;;
51792;SDS011;37850;53.178;6.376;2023-05-07T03:42:09;42.47;;;29.65;;
51792;SDS011;37850;53.178;6.376;2023-05-07T03:44:35;43.95;;;28.45;;
51792;SDS011;37850;53.178;6.376;2023-05-07T03:47:01;41.13;;;28.30;;
51792;SDS011;37850;53.178;6.376;2023-05-07T03:49:28;42.50;;;27.98;;
51792;SDS011;37850;53.178;6.376;2023-05-07T03:51:53;44.13;;;29.15;;
51792;SDS011;37850;53.178;6.376;2023-05-07T03:54:19;47.03;;;30.00;;
51792;SDS011;37850;53.178;6.376;2023-05-07T03:56:45;44.63;;;29.65;;
51792;SDS011;37850;53.178;6.376;2023-05-07T03:59:12;49.67;;;30.10;;
51792;SDS011;37850;53.178;6.376;2023-05-07T04:01:38;47.97;;;30.10;;
51792;SDS011;37850;53.178;6.376;2023-05-07T04:04:04;48.20;;;30.20;;
51792;SDS011;37850;53.178;6.376;2023-05-07T04:06:30;47.45;;;28.20;;
51792;SDS011;37850;53.178;6.376;2023-05-07T04:08:56;43.63;;;28.63;;
51792;SDS011;37850;53.178;6.376;2023-05-07T04:11:22;44.55;;;29.70;;
51792;SDS011;37850;53.178;6.376;2023-05-07T04:13:48;43.15;;;29.27;;
51792;SDS011;37850;53.178;6.376;2023-05-07T04:16:14;46.72;;;31.30;;
51792;SDS011;37850;53.178;6.376;2023-05-07T04:18:40;47.67;;;29.33;;
51792;SDS011;37850;53.178;6.376;2023-05-07T04:21:13;44.67;;;29.25;;
51792;SDS011;37850;53.178;6.376;2023-05-07T04:23:48;51.10;;;30.67;;
51792;SDS011;37850;53.178;6.376;2023-05-07T04:26:15;48.83;;;30.88;;
51792;SDS011;37850;53.178;6.376;2023-05-07T04:28:41;50.60;;;30.65;;
51792;SDS011;37850;53.178;6.376;2023-05-07T04:31:06;48.15;;;30.70;;
51792;SDS011;37850;53.178;6.376;2023-05-07T04:33:32;45.42;;;30.70;;
51792;SDS011;37850;53.178;6.376;2023-05-07T04:36:01;46.33;;;29.52;;
51792;SDS011;37850;53.178;6.376;2023-05-07T04:38:30;45.33;;;30.17;;
51792;SDS011;37850;53.178;6.376;2023-05-07T04:41:02;48.80;;;30.50;;
51792;SDS011;37850;53.178;6.376;2023-05-07T04:43:29;45.13;;;29.55;;
51792;SDS011;37850;53.178;6.376;2023-05-07T04:45:54;41.88;;;28.35;;
51792;SDS011;37850;53.178;6.376;2023-05-07T04:48:20;44.97;;;30.15;;
51792;SDS011;37850;53.178;6.376;2023-05-07T04:50:49;44.22;;;29.48;;
51792;SDS011;37850;53.178;6.376;2023-05-07T04:53:16;44.47;;;29.67;;
51792;SDS011;37850;53.178;6.376;2023-05-07T04:55:42;46.78;;;30.45;;
51792;SDS011;37850;53.178;6.376;2023-05-07T04:58:08;46.17;;;30.38;;
51792;SDS011;37850;53.178;6.376;2023-05-07T05:00:34;44.88;;;29.13;;
51792;SDS011;37850;53.178;6.376;2023-05-07T05:03:00;50.78;;;30.20;;
51792;SDS011;37850;53.178;6.376;2023-05-07T05:05:26;43.30;;;29.55;;
51792;SDS011;37850;53.178;6.376;2023-05-07T05:07:52;43.05;;;29.27;;
51792;SDS011;37850;53.178;6.376;2023-05-07T05:10:18;41.75;;;26.65;;
51792;SDS011;37850;53.178;6.376;2023-05-07T05:12:43;43.85;;;28.80;;
51792;SDS011;37850;53.178;6.376;2023-05-07T05:15:10;46.60;;;28.13;;
51792;SDS011;37850;53.178;6.376;2023-05-07T05:17:37;38.28;;;25.40;;
51792;SDS011;37850;53.178;6.376;2023-05-07T05:20:02;38.38;;;26.80;;
51792;SDS011;37850;53.178;6.376;2023-05-07T05:22:28;42.60;;;28.38;;
51792;SDS011;37850;53.178;6.376;2023-05-07T05:24:56;37.95;;;26.95;;
51792;SDS011;37850;53.178;6.376;2023-05-07T05:27:22;39.20;;;27.83;;
51792;SDS011;37850;53.178;6.376;2023-05-07T05:29:47;44.38;;;27.85;;
51792;SDS011;37850;53.178;6.376;2023-05-07T05:32:13;41.10;;;27.48;;
51792;SDS011;37850;53.178;6.376;2023-05-07T05:34:39;38.33;;;27.27;;
51792;SDS011;37850;53.178;6.376;2023-05-07T05:37:04;39.30;;;26.65;;
51792;SDS011;37850;53.178;6.376;2023-05-07T05:39:30;41.72;;;27.17;;
51792;SDS011;37850;53.178;6.376;2023-05-07T05:41:56;41.00;;;26.23;;
51792;SDS011;37850;53.178;6.376;2023-05-07T05:44:22;40.00;;;26.40;;
51792;SDS011;37850;53.178;6.376;2023-05-07T05:46:48;40.03;;;26.67;;
51792;SDS011;37850;53.178;6.376;2023-05-07T05:49:15;36.97;;;26.45;;
51792;SDS011;37850;53.178;6.376;2023-05-07T05:51:42;39.42;;;26.92;;
51792;SDS011;37850;53.178;6.376;2023-05-07T05:54:08;38.78;;;25.27;;
51792;SDS011;37850;53.178;6.376;2023-05-07T05:56:34;36.63;;;25.33;;
51792;SDS011;37850;53.178;6.376;2023-05-07T05:59:01;38.92;;;25.92;;
51792;SDS011;37850;53.178;6.376;2023-05-07T06:01:27;36.95;;;24.20;;
51792;SDS011;37850;53.178;6.376;2023-05-07T06:03:52;38.60;;;25.10;;
51792;SDS011;37850;53.178;6.376;2023-05-07T06:06:18;37.20;;;24.88;;
51792;SDS011;37850;53.178;6.376;2023-05-07T06:08:44;36.25;;;25.30;;
51792;SDS011;37850;53.178;6.376;2023-05-07T06:11:10;41.38;;;25.77;;
51792;SDS011;37850;53.178;6.376;2023-05-07T06:13:36;38.10;;;25.33;;
51792;SDS011;37850;53.178;6.376;2023-05-07T06:16:03;34.17;;;25.35;;
51792;SDS011;37850;53.178;6.376;2023-05-07T06:18:31;37.50;;;25.08;;
51792;SDS011;37850;53.178;6.376;2023-05-07T06:20:57;40.28;;;23.90;;
51792;SDS011;37850;53.178;6.376;2023-05-07T06:23:22;35.20;;;24.48;;
51792;SDS011;37850;53.178;6.376;2023-05-07T06:25:48;36.75;;;25.42;;
51792;SDS011;37850;53.178;6.376;2023-05-07T06:28:17;35.75;;;23.77;;
51792;SDS011;37850;53.178;6.376;2023-05-07T06:30:43;35.25;;;23.52;;
51792;SDS011;37850;53.178;6.376;2023-05-07T06:33:09;35.83;;;23.75;;
51792;SDS011;37850;53.178;6.376;2023-05-07T06:35:35;34.33;;;24.63;;
51792;SDS011;37850;53.178;6.376;2023-05-07T06:38:01;34.13;;;24.60;;
51792;SDS011;37850;53.178;6.376;2023-05-07T06:40:26;35.75;;;25.10;;
51792;SDS011;37850;53.178;6.376;2023-05-07T06:42:52;33.13;;;24.10;;
51792;SDS011;37850;53.178;6.376;2023-05-07T06:45:19;33.38;;;24.23;;
51792;SDS011;37850;53.178;6.376;2023-05-07T06:47:45;32.65;;;24.75;;
51792;SDS011;37850;53.178;6.376;2023-05-07T06:50:11;34.65;;;24.95;;
51792;SDS011;37850;53.178;6.376;2023-05-07T06:52:37;34.65;;;24.02;;
51792;SDS011;37850;53.178;6.376;2023-05-07T06:55:02;35.63;;;24.70;;
51792;SDS011;37850;53.178;6.376;2023-05-07T06:57:29;32.70;;;23.90;;
51792;SDS011;37850;53.178;6.376;2023-05-07T06:59:54;37.10;;;24.50;;
51792;SDS011;37850;53.178;6.376;2023-05-07T07:02:21;33.22;;;22.60;;
51792;SDS011;37850;53.178;6.376;2023-05-07T07:04:46;32.78;;;23.15;;
51792;SDS011;37850;53.178;6.376;2023-05-07T07:07:12;32.78;;;22.95;;
51792;SDS011;37850;53.178;6.376;2023-05-07T07:09:38;36.10;;;23.48;;
51792;SDS011;37850;53.178;6.376;2023-05-07T07:12:04;31.90;;;23.48;;
51792;SDS011;37850;53.178;6.376;2023-05-07T07:14:29;32.83;;;23.38;;
51792;SDS011;37850;53.178;6.376;2023-05-07T07:16:55;32.65;;;24.02;;
51792;SDS011;37850;53.178;6.376;2023-05-07T07:19:21;33.00;;;24.17;;
51792;SDS011;37850;53.178;6.376;2023-05-07T07:21:47;34.17;;;23.63;;
51792;SDS011;37850;53.178;6.376;2023-05-07T07:24:13;31.55;;;23.17;;
51792;SDS011;37850;53.178;6.376;2023-05-07T07:26:44;38.83;;;23.52;;
51792;SDS011;37850;53.178;6.376;2023-05-07T07:29:10;34.63;;;23.70;;
51792;SDS011;37850;53.178;6.376;2023-05-07T07:31:36;37.38;;;24.88;;
51792;SDS011;37850;53.178;6.376;2023-05-07T07:34:02;34.67;;;23.33;;
51792;SDS011;37850;53.178;6.376;2023-05-07T07:36:27;35.00;;;24.48;;
51792;SDS011;37850;53.178;6.376;2023-05-07T07:38:53;39.35;;;23.75;;
51792;SDS011;37850;53.178;6.376;2023-05-07T07:41:19;33.40;;;23.63;;
51792;SDS011;37850;53.178;6.376;2023-05-07T07:43:45;35.53;;;25.13;;
51792;SDS011;37850;53.178;6.376;2023-05-07T07:46:11;34.30;;;25.13;;
51792;SDS011;37850;53.178;6.376;2023-05-07T07:48:37;33.38;;;23.92;;
51792;SDS011;37850;53.178;6.376;2023-05-07T07:51:03;34.40;;;24.88;;
51792;SDS011;37850;53.178;6.376;2023-05-07T07:53:29;34.80;;;23.73;;
51792;SDS011;37850;53.178;6.376;2023-05-07T07:55:55;34.97;;;24.48;;
51792;SDS011;37850;53.178;6.376;2023-05-07T07:58:21;33.60;;;23.50;;
51792;SDS011;37850;53.178;6.376;2023-05-07T08:00:47;37.95;;;24.80;;
51792;SDS011;37850;53.178;6.376;2023-05-07T08:03:13;38.45;;;24.75;;
51792;SDS011;37850;53.178;6.376;2023-05-07T08:05:41;36.33;;;24.92;;
51792;SDS011;37850;53.178;6.376;2023-05-07T08:08:07;36.47;;;24.77;;
51792;SDS011;37850;53.178;6.376;2023-05-07T08:10:33;34.65;;;24.25;;
51792;SDS011;37850;53.178;6.376;2023-05-07T08:12:59;33.15;;;24.98;;
51792;SDS011;37850;53.178;6.376;2023-05-07T08:15:25;35.88;;;25.10;;
51792;SDS011;37850;53.178;6.376;2023-05-07T08:17:51;35.78;;;23.55;;
51792;SDS011;37850;53.178;6.376;2023-05-07T08:20:17;34.30;;;24.58;;
51792;SDS011;37850;53.178;6.376;2023-05-07T08:22:43;36.00;;;24.48;;
51792;SDS011;37850;53.178;6.376;2023-05-07T08:25:09;36.25;;;25.42;;
51792;SDS011;37850;53.178;6.376;2023-05-07T08:27:36;35.38;;;25.00;;
51792;SDS011;37850;53.178;6.376;2023-05-07T08:30:03;34.35;;;24.77;;
51792;SDS011;37850;53.178;6.376;2023-05-07T08:32:29;36.55;;;24.65;;
51792;SDS011;37850;53.178;6.376;2023-05-07T08:34:55;37.92;;;24.75;;
51792;SDS011;37850;53.178;6.376;2023-05-07T08:37:21;38.28;;;25.30;;
51792;SDS011;37850;53.178;6.376;2023-05-07T08:39:47;38.40;;;24.65;;
51792;SDS011;37850;53.178;6.376;2023-05-07T08:42:12;33.25;;;24.85;;
51792;SDS011;37850;53.178;6.376;2023-05-07T08:44:42;34.03;;;24.63;;
51792;SDS011;37850;53.178;6.376;2023-05-07T08:49:39;36.60;;;25.30;;
51792;SDS011;37850;53.178;6.376;2023-05-07T08:52:05;37.92;;;24.83;;
51792;SDS011;37850;53.178;6.376;2023-05-07T08:54:31;35.75;;;24.83;;
51792;SDS011;37850;53.178;6.376;2023-05-07T08:57:01;36.10;;;25.50;;
51792;SDS011;37850;53.178;6.376;2023-05-07T08:59:27;36.97;;;25.10;;
51792;SDS011;37850;53.178;6.376;2023-05-07T09:01:53;35.70;;;25.40;;
51792;SDS011;37850;53.178;6.376;2023-05-07T09:04:19;34.20;;;24.75;;
51792;SDS011;37850;53.178;6.376;2023-05-07T09:06:45;32.47;;;23.38;;
51792;SDS011;37850;53.178;6.376;2023-05-07T09:09:16;35.47;;;24.02;;
51792;SDS011;37850;53.178;6.376;2023-05-07T09:11:43;33.75;;;24.48;;
51792;SDS011;37850;53.178;6.376;2023-05-07T09:14:09;37.15;;;25.00;;
51792;SDS011;37850;53.178;6.376;2023-05-07T09:16:35;36.63;;;25.23;;
51792;SDS011;37850;53.178;6.376;2023-05-07T09:19:01;37.92;;;25.08;;
51792;SDS011;37850;53.178;6.376;2023-05-07T09:21:26;33.83;;;24.30;;
51792;SDS011;37850;53.178;6.376;2023-05-07T09:23:53;34.20;;;24.73;;
51792;SDS011;37850;53.178;6.376;2023-05-07T09:26:23;35.55;;;24.13;;
51792;SDS011;37850;53.178;6.376;2023-05-07T09:28:50;32.75;;;23.85;;
51792;SDS011;37850;53.178;6.376;2023-05-07T09:31:16;31.88;;;23.48;;
51792;SDS011;37850;53.178;6.376;2023-05-07T09:33:42;35.13;;;23.90;;
51792;SDS011;37850;53.178;6.376;2023-05-07T09:36:10;34.92;;;23.65;;
51792;SDS011;37850;53.178;6.376;2023-05-07T09:38:36;34.92;;;23.80;;
51792;SDS011;37850;53.178;6.376;2023-05-07T09:41:07;31.17;;;23.23;;
51792;SDS011;37850;53.178;6.376;2023-05-07T09:46:02;32.75;;;23.52;;
51792;SDS011;37850;53.178;6.376;2023-05-07T09:48:38;33.03;;;21.95;;
51792;SDS011;37850;53.178;6.376;2023-05-07T09:53:40;30.98;;;21.83;;
51792;SDS011;37850;53.178;6.376;2023-05-07T09:56:07;30.80;;;22.65;;
51792;SDS011;37850;53.178;6.376;2023-05-07T09:58:33;30.08;;;22.30;;
51792;SDS011;37850;53.178;6.376;2023-05-07T10:01:02;29.63;;;22.33;;
51792;SDS011;37850;53.178;6.376;2023-05-07T10:03:29;29.65;;;22.17;;
51792;SDS011;37850;53.178;6.376;2023-05-07T10:05:58;30.20;;;22.55;;
51792;SDS011;37850;53.178;6.376;2023-05-07T10:08:24;31.45;;;22.13;;
51792;SDS011;37850;53.178;6.376;2023-05-07T10:10:50;34.03;;;23.10;;
51792;SDS011;37850;53.178;6.376;2023-05-07T10:13:16;30.75;;;22.15;;
51792;SDS011;37850;53.178;6.376;2023-05-07T10:15:44;31.65;;;21.60;;
51792;SDS011;37850;53.178;6.376;2023-05-07T10:18:10;29.77;;;21.55;;
51792;SDS011;37850;53.178;6.376;2023-05-07T10:20:37;28.48;;;21.80;;
51792;SDS011;37850;53.178;6.376;2023-05-07T10:23:04;28.88;;;21.75;;
51792;SDS011;37850;53.178;6.376;2023-05-07T10:25:34;29.98;;;22.08;;
51792;SDS011;37850;53.178;6.376;2023-05-07T10:28:04;28.40;;;21.75;;
51792;SDS011;37850;53.178;6.376;2023-05-07T10:30:45;31.17;;;20.88;;
51792;SDS011;37850;53.178;6.376;2023-05-07T10:33:26;28.38;;;20.67;;
51792;SDS011;37850;53.178;6.376;2023-05-07T10:35:55;26.23;;;19.88;;
51792;SDS011;37850;53.178;6.376;2023-05-07T10:38:24;26.33;;;19.38;;
51792;SDS011;37850;53.178;6.376;2023-05-07T10:40:50;26.25;;;20.52;;
51792;SDS011;37850;53.178;6.376;2023-05-07T10:43:16;27.88;;;20.63;;
51792;SDS011;37850;53.178;6.376;2023-05-07T10:45:42;26.30;;;20.13;;
51792;SDS011;37850;53.178;6.376;2023-05-07T10:48:17;29.23;;;20.38;;
51792;SDS011;37850;53.178;6.376;2023-05-07T10:50:43;26.35;;;20.55;;
51792;SDS011;37850;53.178;6.376;2023-05-07T10:55:43;25.60;;;20.33;;
51792;SDS011;37850;53.178;6.376;2023-05-07T10:58:28;25.88;;;18.98;;
51792;SDS011;37850;53.178;6.376;2023-05-07T11:00:57;27.90;;;18.98;;
51792;SDS011;37850;53.178;6.376;2023-05-07T11:03:25;24.15;;;19.05;;
51792;SDS011;37850;53.178;6.376;2023-05-07T11:08:53;24.67;;;18.33;;
51792;SDS011;37850;53.178;6.376;2023-05-07T11:11:19;25.55;;;18.85;;
51792;SDS011;37850;53.178;6.376;2023-05-07T11:13:45;27.02;;;18.88;;
51792;SDS011;37850;53.178;6.376;2023-05-07T11:16:22;22.67;;;17.83;;
51792;SDS011;37850;53.178;6.376;2023-05-07T11:18:55;23.20;;;17.98;;
51792;SDS011;37850;53.178;6.376;2023-05-07T11:21:34;22.70;;;17.17;;
51792;SDS011;37850;53.178;6.376;2023-05-07T11:24:07;20.77;;;17.00;;
51792;SDS011;37850;53.178;6.376;2023-05-07T11:26:48;21.60;;;17.40;;
51792;SDS011;37850;53.178;6.376;2023-05-07T11:31:44;23.08;;;17.70;;
51792;SDS011;37850;53.178;6.376;2023-05-07T11:34:21;21.17;;;16.73;;
51792;SDS011;37850;53.178;6.376;2023-05-07T11:36:51;22.67;;;16.13;;
51792;SDS011;37850;53.178;6.376;2023-05-07T11:39:27;21.48;;;16.83;;
51792;SDS011;37850;53.178;6.376;2023-05-07T11:41:56;21.90;;;16.98;;
51792;SDS011;37850;53.178;6.376;2023-05-07T11:44:22;21.75;;;17.40;;
51792;SDS011;37850;53.178;6.376;2023-05-07T11:46:48;22.13;;;17.35;;
51792;SDS011;37850;53.178;6.376;2023-05-07T11:49:14;19.83;;;16.13;;
51792;SDS011;37850;53.178;6.376;2023-05-07T11:51:40;22.85;;;17.15;;
51792;SDS011;37850;53.178;6.376;2023-05-07T11:54:07;20.30;;;16.45;;
51792;SDS011;37850;53.178;6.376;2023-05-07T11:56:34;20.38;;;17.02;;
51792;SDS011;37850;53.178;6.376;2023-05-07T11:59:04;20.70;;;16.08;;
51792;SDS011;37850;53.178;6.376;2023-05-07T12:01:30;20.33;;;17.08;;
51792;SDS011;37850;53.178;6.376;2023-05-07T12:03:56;21.83;;;15.60;;
51792;SDS011;37850;53.178;6.376;2023-05-07T12:06:24;19.23;;;16.50;;
51792;SDS011;37850;53.178;6.376;2023-05-07T12:08:50;19.10;;;15.10;;
51792;SDS011;37850;53.178;6.376;2023-05-07T12:11:22;18.40;;;15.63;;
51792;SDS011;37850;53.178;6.376;2023-05-07T12:13:49;19.75;;;16.20;;
51792;SDS011;37850;53.178;6.376;2023-05-07T12:16:14;20.13;;;15.63;;
51792;SDS011;37850;53.178;6.376;2023-05-07T12:18:41;22.55;;;15.77;;
51792;SDS011;37850;53.178;6.376;2023-05-07T12:21:07;18.00;;;15.73;;
51792;SDS011;37850;53.178;6.376;2023-05-07T12:23:36;20.77;;;14.95;;
51792;SDS011;37850;53.178;6.376;2023-05-07T12:26:04;18.80;;;15.57;;
51792;SDS011;37850;53.178;6.376;2023-05-07T12:28:30;19.75;;;15.70;;
51792;SDS011;37850;53.178;6.376;2023-05-07T12:31:00;20.83;;;16.25;;
51792;SDS011;37850;53.178;6.376;2023-05-07T12:33:26;18.48;;;15.30;;
51792;SDS011;37850;53.178;6.376;2023-05-07T12:35:54;18.23;;;14.75;;
51792;SDS011;37850;53.178;6.376;2023-05-07T12:38:21;20.05;;;15.90;;
51792;SDS011;37850;53.178;6.376;2023-05-07T12:40:47;19.63;;;15.30;;
51792;SDS011;37850;53.178;6.376;2023-05-07T12:43:28;19.15;;;15.57;;
51792;SDS011;37850;53.178;6.376;2023-05-07T12:45:55;23.75;;;15.75;;
51792;SDS011;37850;53.178;6.376;2023-05-07T12:48:22;19.42;;;15.45;;
51792;SDS011;37850;53.178;6.376;2023-05-07T12:50:52;19.98;;;15.88;;
51792;SDS011;37850;53.178;6.376;2023-05-07T12:53:20;20.15;;;15.52;;
51792;SDS011;37850;53.178;6.376;2023-05-07T12:55:48;18.65;;;15.50;;
51792;SDS011;37850;53.178;6.376;2023-05-07T13:00:54;19.50;;;16.30;;
51792;SDS011;37850;53.178;6.376;2023-05-07T13:05:51;19.63;;;15.75;;
51792;SDS011;37850;53.178;6.376;2023-05-07T13:08:24;18.20;;;14.70;;
51792;SDS011;37850;53.178;6.376;2023-05-07T13:10:53;19.02;;;14.85;;
51792;SDS011;37850;53.178;6.376;2023-05-07T13:13:19;16.95;;;14.30;;
51792;SDS011;37850;53.178;6.376;2023-05-07T13:15:46;17.60;;;13.82;;
51792;SDS011;37850;53.178;6.376;2023-05-07T13:18:12;17.60;;;14.20;;
51792;SDS011;37850;53.178;6.376;2023-05-07T13:20:41;18.50;;;15.63;;
51792;SDS011;37850;53.178;6.376;2023-05-07T13:23:07;16.40;;;14.10;;
51792;SDS011;37850;53.178;6.376;2023-05-07T13:25:32;16.88;;;14.07;;
51792;SDS011;37850;53.178;6.376;2023-05-07T13:27:58;16.42;;;13.98;;
51792;SDS011;37850;53.178;6.376;2023-05-07T13:30:24;22.88;;;13.88;;
51792;SDS011;37850;53.178;6.376;2023-05-07T13:32:51;15.63;;;13.45;;
51792;SDS011;37850;53.178;6.376;2023-05-07T13:35:20;16.45;;;14.40;;
51792;SDS011;37850;53.178;6.376;2023-05-07T13:37:46;15.30;;;12.90;;
51792;SDS011;37850;53.178;6.376;2023-05-07T13:40:13;17.73;;;13.77;;
51792;SDS011;37850;53.178;6.376;2023-05-07T13:42:39;17.85;;;13.80;;
51792;SDS011;37850;53.178;6.376;2023-05-07T13:45:06;16.52;;;14.20;;
51792;SDS011;37850;53.178;6.376;2023-05-07T13:47:33;17.67;;;14.32;;
51792;SDS011;37850;53.178;6.376;2023-05-07T13:49:59;16.38;;;13.52;;
51792;SDS011;37850;53.178;6.376;2023-05-07T13:52:25;16.85;;;13.18;;
51792;SDS011;37850;53.178;6.376;2023-05-07T13:54:51;16.65;;;14.25;;
51792;SDS011;37850;53.178;6.376;2023-05-07T13:57:17;15.93;;;13.10;;
51792;SDS011;37850;53.178;6.376;2023-05-07T13:59:43;16.35;;;13.75;;
51792;SDS011;37850;53.178;6.376;2023-05-07T14:02:09;17.73;;;13.15;;
51792;SDS011;37850;53.178;6.376;2023-05-07T14:04:35;18.10;;;14.43;;
51792;SDS011;37850;53.178;6.376;2023-05-07T14:07:02;20.00;;;14.23;;
51792;SDS011;37850;53.178;6.376;2023-05-07T14:09:28;17.00;;;13.80;;
51792;SDS011;37850;53.178;6.376;2023-05-07T14:11:54;17.95;;;13.55;;
51792;SDS011;37850;53.178;6.376;2023-05-07T14:14:20;17.08;;;13.27;;
51792;SDS011;37850;53.178;6.376;2023-05-07T14:16:46;15.95;;;13.00;;
51792;SDS011;37850;53.178;6.376;2023-05-07T14:19:12;17.73;;;13.60;;
51792;SDS011;37850;53.178;6.376;2023-05-07T14:21:37;17.00;;;12.68;;
51792;SDS011;37850;53.178;6.376;2023-05-07T14:24:05;16.30;;;13.55;;
51792;SDS011;37850;53.178;6.376;2023-05-07T14:26:32;16.85;;;13.13;;
51792;SDS011;37850;53.178;6.376;2023-05-07T14:28:58;14.80;;;12.50;;
51792;SDS011;37850;53.178;6.376;2023-05-07T14:31:24;15.65;;;13.00;;
51792;SDS011;37850;53.178;6.376;2023-05-07T14:33:50;15.65;;;13.18;;
51792;SDS011;37850;53.178;6.376;2023-05-07T14:36:17;16.15;;;12.85;;
51792;SDS011;37850;53.178;6.376;2023-05-07T14:38:48;14.38;;;12.50;;
51792;SDS011;37850;53.178;6.376;2023-05-07T14:41:14;13.63;;;11.75;;